createdAt,value
2019-06-27T00:00:54.344Z,100701.00
2019-06-27T00:03:23.813Z,100703.00
2019-06-27T00:05:53.270Z,100702.00
2019-06-27T00:08:22.769Z,100694.00
2019-06-27T00:10:52.270Z,100696.00
2019-06-27T00:13:21.753Z,100703.00
2019-06-27T00:15:51.258Z,100705.00
2019-06-27T00:18:20.726Z,100712.00
2019-06-27T00:20:50.215Z,100706.00
2019-06-27T00:23:19.660Z,100706.00
2019-06-27T00:25:49.152Z,100702.00
2019-06-27T00:28:18.596Z,100706.00
2019-06-27T00:30:48.060Z,100712.00
2019-06-27T00:33:17.497Z,100709.00
2019-06-27T00:35:46.990Z,100709.00
2019-06-27T00:38:16.455Z,100717.00
2019-06-27T00:40:46.002Z,100722.00
2019-06-27T00:43:15.517Z,100723.00
2019-06-27T00:45:45.079Z,100734.00
2019-06-27T00:48:14.653Z,100732.00
2019-06-27T00:50:45.298Z,100734.00
2019-06-27T00:53:14.745Z,100740.00
2019-06-27T00:55:44.200Z,100745.00
2019-06-27T00:58:13.730Z,100749.00
2019-06-27T01:00:43.257Z,100749.00
2019-06-27T01:03:12.796Z,100762.00
2019-06-27T01:05:42.257Z,100758.00
2019-06-27T01:08:11.725Z,100760.00
2019-06-27T01:10:45.539Z,100772.00
2019-06-27T01:13:15.038Z,100765.00
2019-06-27T01:15:44.500Z,100766.00
2019-06-27T01:18:13.954Z,100773.00
2019-06-27T01:20:43.417Z,100770.00
2019-06-27T01:23:12.991Z,100773.00
2019-06-27T01:25:42.716Z,100775.00
2019-06-27T01:28:12.174Z,100767.00
2019-06-27T01:30:41.631Z,100772.00
2019-06-27T01:33:11.197Z,100769.00
2019-06-27T01:35:40.694Z,100776.00
2019-06-27T01:38:10.132Z,100786.00
2019-06-27T01:40:39.622Z,100779.00
2019-06-27T01:43:09.158Z,100782.00
2019-06-27T01:45:43.259Z,100788.00
2019-06-27T01:48:12.690Z,100783.00
2019-06-27T01:50:42.392Z,100788.00
2019-06-27T01:53:11.954Z,100785.00
2019-06-27T01:55:41.414Z,100782.00
2019-06-27T01:58:10.948Z,100794.00
2019-06-27T02:00:40.379Z,100794.00
2019-06-27T02:03:09.944Z,100795.00
2019-06-27T02:05:39.682Z,100800.00
2019-06-27T02:08:09.257Z,100800.00
2019-06-27T02:10:38.834Z,100802.00
2019-06-27T02:13:08.366Z,100799.00
2019-06-27T02:15:37.975Z,100800.00
2019-06-27T02:18:07.674Z,100796.00
2019-06-27T02:20:37.250Z,100794.00
2019-06-27T02:23:06.752Z,100800.00
2019-06-27T02:25:36.358Z,100799.00
2019-06-27T02:28:06.135Z,100801.00
2019-06-27T02:30:46.046Z,100795.00
2019-06-27T02:33:15.700Z,100794.00
2019-06-27T02:35:45.231Z,100791.00
2019-06-27T02:38:14.781Z,100796.00
2019-06-27T02:40:44.419Z,100801.00
2019-06-27T02:43:13.977Z,100802.00
2019-06-27T02:45:43.586Z,100804.00
2019-06-27T02:48:13.117Z,100802.00
2019-06-27T02:50:42.579Z,100798.00
2019-06-27T02:53:12.085Z,100807.00
2019-06-27T02:55:41.769Z,100806.00
2019-06-27T02:58:29.028Z,100803.00
2019-06-27T03:00:42.540Z,100799.00
2019-06-27T03:03:12.011Z,100812.00
2019-06-27T03:05:41.508Z,100809.00
2019-06-27T03:08:11.017Z,100801.00
2019-06-27T03:10:40.712Z,100801.00
2019-06-27T03:13:10.207Z,100800.00
2019-06-27T03:15:39.716Z,100805.00
2019-06-27T03:18:09.258Z,100807.00
2019-06-27T03:20:38.718Z,100805.00
2019-06-27T03:23:08.383Z,100801.00
2019-06-27T03:25:37.829Z,100811.00
2019-06-27T03:28:07.341Z,100810.00
2019-06-27T03:30:36.902Z,100802.00
2019-06-27T03:33:06.679Z,100817.00
2019-06-27T03:35:36.116Z,100812.00
2019-06-27T03:38:06.034Z,100822.00
2019-06-27T03:40:35.639Z,100823.00
2019-06-27T03:43:05.344Z,100823.00
2019-06-27T03:45:34.869Z,100819.00
2019-06-27T03:48:04.508Z,100817.00
2019-06-27T03:50:34.021Z,100816.00
2019-06-27T03:53:03.564Z,100811.00
2019-06-27T03:55:33.075Z,100815.00
2019-06-27T03:58:02.598Z,100824.00
2019-06-27T04:00:35.504Z,100826.00
2019-06-27T04:03:05.200Z,100821.00
2019-06-27T04:05:34.786Z,100827.00
2019-06-27T04:08:04.238Z,100826.00
2019-06-27T04:10:33.938Z,100826.00
2019-06-27T04:13:03.506Z,100822.00
2019-06-27T04:15:33.004Z,100833.00
2019-06-27T04:18:02.467Z,100833.00
2019-06-27T04:20:31.993Z,100836.00
2019-06-27T04:23:01.455Z,100831.00
2019-06-27T04:25:30.989Z,100825.00
2019-06-27T04:28:00.854Z,100831.00
2019-06-27T04:30:30.394Z,100838.00
2019-06-27T04:32:59.899Z,100833.00
2019-06-27T04:35:29.523Z,100837.00
2019-06-27T04:37:58.956Z,100844.00
2019-06-27T04:40:28.437Z,100847.00
2019-06-27T04:42:57.939Z,100850.00
2019-06-27T04:45:27.409Z,100851.00
2019-06-27T04:47:56.869Z,100851.00
2019-06-27T04:50:26.344Z,100859.00
2019-06-27T04:52:55.809Z,100856.00
2019-06-27T04:55:25.233Z,100869.00
2019-06-27T04:57:54.697Z,100862.00
2019-06-27T05:00:30.348Z,100863.00
2019-06-27T05:02:59.980Z,100869.00
2019-06-27T05:05:29.395Z,100866.00
2019-06-27T05:07:58.832Z,100861.00
2019-06-27T05:10:28.300Z,100860.00
2019-06-27T05:12:57.752Z,100860.00
2019-06-27T05:15:27.260Z,100868.00
2019-06-27T05:17:56.690Z,100875.00
2019-06-27T05:20:26.181Z,100869.00
2019-06-27T05:22:55.622Z,100883.00
2019-06-27T05:25:25.089Z,100874.00
2019-06-27T05:27:54.542Z,100880.00
2019-06-27T05:30:24.014Z,100873.00
2019-06-27T05:32:53.447Z,100885.00
2019-06-27T05:35:22.937Z,100885.00
2019-06-27T05:37:52.396Z,100890.00
2019-06-27T05:40:41.215Z,100899.00
2019-06-27T05:43:10.643Z,100902.00
2019-06-27T05:45:40.141Z,100898.00
2019-06-27T05:48:09.605Z,100911.00
2019-06-27T05:50:39.047Z,100916.00
2019-06-27T05:53:27.817Z,100907.00
2019-06-27T05:55:57.305Z,100914.00
2019-06-27T05:58:26.858Z,100922.00
2019-06-27T06:00:56.317Z,100925.00
2019-06-27T06:03:25.797Z,100931.00
2019-06-27T06:05:55.282Z,100927.00
2019-06-27T06:08:24.702Z,100938.00
2019-06-27T06:10:54.190Z,100946.00
2019-06-27T06:13:23.807Z,100936.00
2019-06-27T06:15:53.288Z,100955.00
2019-06-27T06:18:22.743Z,100939.00
2019-06-27T06:20:52.216Z,100934.00
2019-06-27T06:23:21.666Z,100939.00
2019-06-27T06:25:51.146Z,100949.00
2019-06-27T06:28:20.568Z,100935.00
2019-06-27T06:30:50.113Z,100934.00
2019-06-27T06:33:19.557Z,100947.00
2019-06-27T06:35:49.144Z,100943.00
2019-06-27T06:38:18.679Z,100942.00
2019-06-27T06:40:48.233Z,100954.00
2019-06-27T06:43:17.967Z,100944.00
2019-06-27T06:45:47.547Z,100950.00
2019-06-27T06:48:16.974Z,100949.00
2019-06-27T06:50:46.429Z,100955.00
2019-06-27T06:53:16.120Z,100948.00
2019-06-27T06:55:45.553Z,100939.00
2019-06-27T06:58:14.977Z,100946.00
2019-06-27T07:01:00.207Z,100947.00
2019-06-27T07:03:15.723Z,100935.00
2019-06-27T07:05:45.159Z,100954.00
2019-06-27T07:08:14.738Z,100940.00
2019-06-27T07:10:44.185Z,100949.00
2019-06-27T07:13:13.641Z,100941.00
2019-06-27T07:15:43.117Z,100950.00
2019-06-27T07:18:12.572Z,100954.00
2019-06-27T07:20:42.691Z,100949.00
2019-06-27T07:23:12.166Z,100960.00
2019-06-27T07:25:42.011Z,100960.00
2019-06-27T07:28:11.538Z,100964.00
2019-06-27T07:30:40.984Z,100970.00
2019-06-27T07:33:10.505Z,100971.00
2019-06-27T07:35:39.898Z,100972.00
2019-06-27T07:38:09.376Z,100972.00
2019-06-27T07:40:38.864Z,100975.00
2019-06-27T07:43:08.296Z,100973.00
2019-06-27T07:45:37.766Z,100976.00
2019-06-27T07:48:07.221Z,100962.00
2019-06-27T07:50:36.791Z,100961.00
2019-06-27T07:53:06.281Z,100972.00
2019-06-27T07:55:35.858Z,100969.00
2019-06-27T07:58:05.305Z,100964.00
2019-06-27T08:00:34.767Z,100961.00
2019-06-27T08:03:04.369Z,100957.00
2019-06-27T08:05:33.824Z,100964.00
2019-06-27T08:08:03.317Z,100965.00
2019-06-27T08:10:32.838Z,100963.00
2019-06-27T08:13:02.269Z,100969.00
2019-06-27T08:15:31.900Z,100959.00
2019-06-27T08:18:01.355Z,100963.00
2019-06-27T08:20:30.867Z,100961.00
2019-06-27T08:23:00.321Z,100959.00
2019-06-27T08:25:29.772Z,100966.00
2019-06-27T08:27:59.231Z,100966.00
2019-06-27T08:30:28.729Z,100959.00
2019-06-27T08:32:58.148Z,100958.00
2019-06-27T08:35:27.658Z,100964.00
2019-06-27T08:37:57.150Z,100960.00
2019-06-27T08:40:26.606Z,100950.00
2019-06-27T08:42:56.155Z,100949.00
2019-06-27T08:45:25.728Z,100947.00
2019-06-27T08:47:55.189Z,100956.00
2019-06-27T08:50:24.944Z,100951.00
2019-06-27T08:52:54.418Z,100953.00
2019-06-27T08:55:23.853Z,100959.00
2019-06-27T08:57:53.656Z,100959.00
2019-06-27T09:00:23.134Z,100961.00
2019-06-27T09:02:52.607Z,100939.00
2019-06-27T09:05:22.030Z,100952.00
2019-06-27T09:07:51.494Z,100956.00
2019-06-27T09:10:21.445Z,100943.00
2019-06-27T09:12:50.907Z,100958.00
2019-06-27T09:15:21.444Z,100956.00
2019-06-27T09:17:50.898Z,100955.00
2019-06-27T09:20:21.034Z,100954.00
2019-06-27T09:22:50.519Z,100968.00
2019-06-27T09:25:20.019Z,100976.00
2019-06-27T09:27:49.543Z,100934.00
2019-06-27T09:30:19.502Z,100959.00
2019-06-27T09:32:49.027Z,100930.00
2019-06-27T09:35:18.850Z,100964.00
2019-06-27T09:37:48.350Z,100954.00
2019-06-27T09:40:18.498Z,100943.00
2019-06-27T09:42:48.230Z,100942.00
2019-06-27T09:45:18.587Z,100957.00
2019-06-27T09:47:48.141Z,100945.00
2019-06-27T09:50:21.438Z,100947.00
2019-06-27T09:52:49.519Z,100947.00
2019-06-27T09:55:19.913Z,100927.00
2019-06-27T09:57:49.407Z,100940.00
2019-06-27T10:00:20.076Z,100942.00
2019-06-27T10:02:49.565Z,100962.00
2019-06-27T10:05:19.158Z,100970.00
2019-06-27T10:07:48.640Z,100964.00
2019-06-27T10:10:18.383Z,100985.00
2019-06-27T10:12:47.868Z,100981.00
2019-06-27T10:15:17.806Z,100974.00
2019-06-27T10:17:47.260Z,100969.00
2019-06-27T10:20:17.591Z,100971.00
2019-06-27T10:22:47.215Z,100975.00
2019-06-27T10:25:17.094Z,100945.00
2019-06-27T10:27:46.554Z,100986.00
2019-06-27T10:30:17.196Z,100977.00
2019-06-27T10:32:58.574Z,100982.00
2019-06-27T10:35:18.005Z,100993.00
2019-06-27T10:37:47.498Z,100986.00
2019-06-27T10:40:17.186Z,100989.00
2019-06-27T10:42:46.662Z,100948.00
2019-06-27T10:45:16.622Z,100976.00
2019-06-27T10:47:46.084Z,100971.00
2019-06-27T10:50:15.984Z,100956.00
2019-06-27T10:52:45.516Z,100960.00
2019-06-27T10:55:15.032Z,100961.00
2019-06-27T10:57:44.507Z,100958.00
2019-06-27T11:00:16.019Z,100955.00
2019-06-27T11:02:45.588Z,100961.00
2019-06-27T11:05:15.397Z,100959.00
2019-06-27T11:07:45.047Z,100967.00
2019-06-27T11:10:14.798Z,100977.00
2019-06-27T11:12:45.217Z,100978.00
2019-06-27T11:15:15.865Z,100960.00
2019-06-27T11:17:45.423Z,100980.00
2019-06-27T11:20:16.326Z,100971.00
2019-06-27T11:22:45.841Z,100966.00
2019-06-27T11:25:15.766Z,100966.00
2019-06-27T11:27:48.143Z,100980.00
2019-06-27T11:30:22.078Z,100961.00
2019-06-27T11:32:54.980Z,100967.00
2019-06-27T11:35:24.504Z,100950.00
2019-06-27T11:37:54.261Z,100924.00
2019-06-27T11:40:25.159Z,100941.00
2019-06-27T11:42:54.606Z,100918.00
2019-06-27T11:45:24.163Z,100889.00
2019-06-27T11:47:53.855Z,100905.00
2019-06-27T11:50:23.291Z,100941.00
2019-06-27T11:52:52.850Z,100945.00
2019-06-27T11:55:22.456Z,100941.00
2019-06-27T11:57:51.914Z,100934.00
2019-06-27T12:00:21.879Z,100947.00
2019-06-27T12:02:51.395Z,100935.00
2019-06-27T12:05:20.851Z,100943.00
2019-06-27T12:07:50.373Z,100937.00
2019-06-27T12:10:20.480Z,100942.00
2019-06-27T12:12:49.929Z,100922.00
2019-06-27T12:15:19.572Z,100903.00
2019-06-27T12:17:49.171Z,100917.00
2019-06-27T12:20:18.864Z,100945.00
2019-06-27T12:23:07.654Z,100945.00
2019-06-27T12:25:37.112Z,100926.00
2019-06-27T12:28:06.707Z,100906.00
2019-06-27T12:30:36.214Z,100951.00
2019-06-27T12:33:05.701Z,100931.00
2019-06-27T12:35:35.188Z,100962.00
2019-06-27T12:38:04.735Z,100921.00
2019-06-27T12:40:34.324Z,100945.00
2019-06-27T12:43:03.831Z,100914.00
2019-06-27T12:45:32.676Z,100938.00
2019-06-27T12:48:07.367Z,100958.00
2019-06-27T12:50:33.297Z,100961.00
2019-06-27T12:53:02.773Z,100978.00
2019-06-27T12:55:32.208Z,100916.00
2019-06-27T12:58:01.732Z,100949.00
2019-06-27T13:00:50.690Z,100922.00
2019-06-27T13:03:20.134Z,100906.00
2019-06-27T13:05:49.567Z,100928.00
2019-06-27T13:08:19.115Z,100911.00
2019-06-27T13:10:48.570Z,100947.00
2019-06-27T13:13:18.012Z,100928.00
2019-06-27T13:15:47.463Z,100933.00
2019-06-27T13:18:16.928Z,100892.00
2019-06-27T13:20:57.468Z,100897.00
2019-06-27T13:23:17.548Z,100881.00
2019-06-27T13:25:47.015Z,100907.00
2019-06-27T13:28:16.450Z,100900.00
2019-06-27T13:30:46.006Z,100898.00
2019-06-27T13:33:15.576Z,100874.00
2019-06-27T13:35:45.029Z,100899.00
2019-06-27T13:38:14.497Z,100891.00
2019-06-27T13:40:43.952Z,100879.00
2019-06-27T13:43:13.378Z,100902.00
2019-06-27T13:45:42.852Z,100918.00
2019-06-27T13:48:12.363Z,100918.00
2019-06-27T13:50:42.165Z,100912.00
2019-06-27T13:53:11.622Z,100886.00
2019-06-27T13:55:41.118Z,100904.00
2019-06-27T13:58:10.569Z,100894.00
2019-06-27T14:00:43.842Z,100903.00
2019-06-27T14:03:13.327Z,100920.00
2019-06-27T14:05:42.956Z,100921.00
2019-06-27T14:08:12.425Z,100925.00
2019-06-27T14:10:41.879Z,100886.00
2019-06-27T14:13:11.402Z,100880.00
2019-06-27T14:15:40.871Z,100861.00
2019-06-27T14:18:10.875Z,100888.00
2019-06-27T14:20:40.318Z,100886.00
2019-06-27T14:23:09.778Z,100896.00
2019-06-27T14:25:39.277Z,100891.00
2019-06-27T14:28:09.149Z,100885.00
2019-06-27T14:30:38.625Z,100891.00
2019-06-27T14:33:08.118Z,100880.00
2019-06-27T14:35:39.022Z,100891.00
2019-06-27T14:38:08.492Z,100869.00
2019-06-27T14:40:38.020Z,100881.00
2019-06-27T14:43:26.840Z,100877.00
2019-06-27T14:45:56.338Z,100871.00
2019-06-27T14:48:25.799Z,100856.00
2019-06-27T14:50:55.267Z,100881.00
2019-06-27T14:53:24.692Z,100875.00
2019-06-27T14:55:54.183Z,100883.00
2019-06-27T14:58:23.723Z,100886.00
2019-06-27T15:00:53.151Z,100880.00
2019-06-27T15:03:22.687Z,100876.00
2019-06-27T15:05:52.292Z,100857.00
2019-06-27T15:08:21.701Z,100848.00
2019-06-27T15:10:51.168Z,100856.00
2019-06-27T15:13:20.647Z,100869.00
2019-06-27T15:15:50.101Z,100869.00
2019-06-27T15:18:19.614Z,100867.00
2019-06-27T15:20:49.077Z,100862.00
2019-06-27T15:23:18.544Z,100865.00
2019-06-27T15:25:47.996Z,100860.00
2019-06-27T15:28:17.454Z,100863.00
2019-06-27T15:30:46.901Z,100847.00
2019-06-27T15:33:16.357Z,100836.00
2019-06-27T15:35:52.212Z,100828.00
2019-06-27T15:38:17.118Z,100826.00
2019-06-27T15:40:47.641Z,100831.00
2019-06-27T15:43:17.112Z,100813.00
2019-06-27T15:45:46.547Z,100820.00
2019-06-27T15:48:15.999Z,100824.00
2019-06-27T15:50:45.454Z,100835.00
2019-06-27T15:53:14.901Z,100822.00
2019-06-27T15:55:44.376Z,100802.00
2019-06-27T15:58:13.886Z,100813.00
2019-06-27T16:00:43.352Z,100828.00
2019-06-27T16:03:12.811Z,100812.00
2019-06-27T16:05:42.309Z,100822.00
2019-06-27T16:08:11.762Z,100832.00
2019-06-27T16:10:41.338Z,100828.00
2019-06-27T16:13:10.797Z,100832.00
2019-06-27T16:15:40.248Z,100831.00
2019-06-27T16:18:09.975Z,100829.00
2019-06-27T16:20:39.575Z,100813.00
2019-06-27T16:23:09.039Z,100809.00
2019-06-27T16:25:38.488Z,100801.00
2019-06-27T16:28:08.086Z,100823.00
2019-06-27T16:30:37.588Z,100823.00
2019-06-27T16:33:07.023Z,100820.00
2019-06-27T16:35:36.519Z,100818.00
2019-06-27T16:38:05.954Z,100815.00
2019-06-27T16:40:35.380Z,100804.00
2019-06-27T16:43:04.916Z,100816.00
2019-06-27T16:45:34.541Z,100808.00
2019-06-27T16:48:04.185Z,100815.00
2019-06-27T16:50:33.749Z,100805.00
2019-06-27T16:53:03.205Z,100795.00
2019-06-27T16:55:33.151Z,100817.00
2019-06-27T16:58:02.644Z,100792.00
2019-06-27T17:00:52.961Z,100796.00
2019-06-27T17:03:24.076Z,100787.00
2019-06-27T17:05:53.544Z,100778.00
2019-06-27T17:08:23.044Z,100801.00
2019-06-27T17:10:52.565Z,100781.00
2019-06-27T17:13:21.999Z,100811.00
2019-06-27T17:15:51.445Z,100792.00
2019-06-27T17:18:20.941Z,100797.00
2019-06-27T17:20:50.390Z,100790.00
2019-06-27T17:23:19.816Z,100790.00
2019-06-27T17:25:49.302Z,100791.00
2019-06-27T17:28:18.781Z,100810.00
2019-06-27T17:30:48.232Z,100801.00
2019-06-27T17:33:17.716Z,100780.00
2019-06-27T17:35:47.140Z,100782.00
2019-06-27T17:38:18.165Z,100767.00
2019-06-27T17:40:47.618Z,100796.00
2019-06-27T17:43:17.168Z,100780.00
2019-06-27T17:46:05.951Z,100800.00
2019-06-27T17:48:35.376Z,100785.00
2019-06-27T17:51:07.891Z,100789.00
2019-06-27T17:53:36.225Z,100815.00
2019-06-27T17:56:05.855Z,100814.00
2019-06-27T17:58:35.317Z,100830.00
2019-06-27T18:01:04.765Z,100824.00
2019-06-27T18:03:34.243Z,100813.00
2019-06-27T18:06:03.725Z,100835.00
2019-06-27T18:08:33.121Z,100844.00
2019-06-27T18:11:02.571Z,100848.00
2019-06-27T18:13:32.103Z,100843.00
2019-06-27T18:16:01.683Z,100812.00
2019-06-27T18:18:31.265Z,100805.00
2019-06-27T18:21:00.870Z,100816.00
2019-06-27T18:23:30.320Z,100817.00
2019-06-27T18:25:59.811Z,100817.00
2019-06-27T18:28:29.244Z,100817.00
2019-06-27T18:30:58.767Z,100829.00
2019-06-27T18:33:28.225Z,100817.00
2019-06-27T18:35:57.857Z,100817.00
2019-06-27T18:38:27.332Z,100803.00
2019-06-27T18:40:56.787Z,100800.00
2019-06-27T18:43:26.282Z,100805.00
2019-06-27T18:45:55.787Z,100808.00
2019-06-27T18:48:25.268Z,100802.00
2019-06-27T18:50:54.757Z,100809.00
2019-06-27T18:53:24.242Z,100817.00
2019-06-27T18:55:53.695Z,100813.00
2019-06-27T18:58:23.192Z,100818.00
2019-06-27T19:00:52.686Z,100822.00
2019-06-27T19:03:22.144Z,100814.00
2019-06-27T19:05:51.602Z,100816.00
2019-06-27T19:08:21.207Z,100822.00
2019-06-27T19:10:50.660Z,100829.00
2019-06-27T19:13:20.110Z,100824.00
2019-06-27T19:15:49.676Z,100835.00
2019-06-27T19:18:37.223Z,100843.00
2019-06-27T19:21:08.389Z,100847.00
2019-06-27T19:23:39.466Z,100855.00
2019-06-27T19:26:08.994Z,100855.00
2019-06-27T19:28:38.836Z,100864.00
2019-06-27T19:31:08.394Z,100864.00
2019-06-27T19:33:37.870Z,100855.00
2019-06-27T19:36:07.402Z,100871.00
2019-06-27T19:38:36.850Z,100867.00
2019-06-27T19:41:06.777Z,100869.00
2019-06-27T19:43:36.395Z,100883.00
2019-06-27T19:46:07.801Z,100881.00
2019-06-27T19:48:37.385Z,100887.00
2019-06-27T19:51:06.847Z,100894.00
2019-06-27T19:53:36.281Z,100897.00
2019-06-27T19:56:05.841Z,100892.00
2019-06-27T19:58:35.349Z,100908.00
2019-06-27T20:01:04.808Z,100897.00
2019-06-27T20:03:34.277Z,100898.00
2019-06-27T20:06:03.753Z,100903.00
2019-06-27T20:08:33.201Z,100901.00
2019-06-27T20:11:02.698Z,100913.00
2019-06-27T20:13:32.155Z,100905.00
2019-06-27T20:16:01.746Z,100920.00
2019-06-27T20:18:31.206Z,100913.00
2019-06-27T20:21:00.659Z,100936.00
2019-06-27T20:23:30.251Z,100913.00
2019-06-27T20:25:59.702Z,100935.00
2019-06-27T20:28:29.268Z,100931.00
2019-06-27T20:30:58.897Z,100945.00
2019-06-27T20:33:28.364Z,100936.00
2019-06-27T20:35:57.785Z,100959.00
2019-06-27T20:38:34.963Z,100928.00
2019-06-27T20:40:58.446Z,100924.00
2019-06-27T20:43:27.902Z,100943.00
2019-06-27T20:45:57.382Z,100942.00
2019-06-27T20:48:27.074Z,100943.00
2019-06-27T20:50:56.686Z,100941.00
2019-06-27T20:53:26.170Z,100949.00
2019-06-27T20:55:55.657Z,100939.00
2019-06-27T20:58:25.115Z,100944.00
2019-06-27T21:00:54.717Z,100965.00
2019-06-27T21:03:24.141Z,100958.00
2019-06-27T21:05:53.669Z,100975.00
2019-06-27T21:08:23.166Z,100955.00
2019-06-27T21:10:52.629Z,100978.00
2019-06-27T21:13:22.081Z,100979.00
2019-06-27T21:15:51.636Z,100975.00
2019-06-27T21:18:21.166Z,100956.00
2019-06-27T21:20:50.665Z,100966.00
2019-06-27T21:23:20.113Z,100979.00
2019-06-27T21:25:49.596Z,100975.00
2019-06-27T21:28:19.049Z,100974.00
2019-06-27T21:30:48.575Z,100985.00
2019-06-27T21:33:18.043Z,100979.00
2019-06-27T21:35:47.472Z,100977.00
2019-06-27T21:38:16.943Z,100968.00
2019-06-27T21:40:46.426Z,100983.00
2019-06-27T21:43:15.912Z,100989.00
2019-06-27T21:45:45.368Z,100989.00
2019-06-27T21:48:14.921Z,100999.00
2019-06-27T21:50:44.352Z,100998.00
2019-06-27T21:53:13.970Z,101001.00
2019-06-27T21:55:43.431Z,101002.00
2019-06-27T21:58:12.887Z,101006.00
2019-06-27T22:00:42.414Z,101007.00
2019-06-27T22:03:12.046Z,101003.00
2019-06-27T22:05:42.915Z,101010.00
2019-06-27T22:08:12.555Z,101015.00
2019-06-27T22:10:42.011Z,101012.00
2019-06-27T22:13:11.497Z,101019.00
2019-06-27T22:15:40.952Z,101015.00
2019-06-27T22:18:10.438Z,101020.00
2019-06-27T22:20:39.946Z,101028.00
2019-06-27T22:23:09.432Z,101016.00
2019-06-27T22:25:40.908Z,101025.00
2019-06-27T22:28:10.215Z,101025.00
2019-06-27T22:30:39.707Z,101022.00
2019-06-27T22:33:09.254Z,101024.00
2019-06-27T22:35:38.700Z,101025.00
2019-06-27T22:38:26.025Z,101022.00
2019-06-27T22:41:13.462Z,101030.00
2019-06-27T22:44:00.707Z,101024.00
2019-06-27T22:46:48.274Z,101021.00
2019-06-27T22:49:17.224Z,101024.00
2019-06-27T22:52:05.052Z,101026.00
2019-06-27T22:54:36.109Z,101028.00
2019-06-27T22:57:05.582Z,101038.00
2019-06-27T22:59:35.086Z,101029.00
2019-06-27T23:02:04.636Z,101031.00
2019-06-27T23:04:34.093Z,101032.00
2019-06-27T23:07:03.557Z,101036.00
2019-06-27T23:09:33.027Z,101031.00
2019-06-27T23:12:02.530Z,101040.00
2019-06-27T23:14:32.032Z,101035.00
2019-06-27T23:17:01.590Z,101041.00
2019-06-27T23:19:31.114Z,101045.00
2019-06-27T23:22:00.562Z,101040.00
2019-06-27T23:24:30.025Z,101047.00
2019-06-27T23:26:59.523Z,101045.00
2019-06-27T23:29:29.019Z,101047.00
2019-06-27T23:31:58.565Z,101048.00
2019-06-27T23:34:28.029Z,101050.00
2019-06-27T23:36:57.555Z,101039.00
2019-06-27T23:39:27.312Z,101050.00
2019-06-27T23:41:56.766Z,101050.00
2019-06-27T23:44:26.252Z,101036.00
2019-06-27T23:46:55.717Z,101046.00
2019-06-27T23:49:25.163Z,101040.00
2019-06-27T23:51:54.621Z,101048.00
2019-06-27T23:54:24.106Z,101053.00
2019-06-27T23:56:53.546Z,101055.00
2019-06-27T23:59:23.088Z,101066.00
